sensor_id;sensor_type;location;lat;lon;timestamp;P1;durP1;ratioP1;P2;durP2;ratioP2
66425;SDS011;53237;46.158;14.604;2022-10-15T00:03:36;36.40;;;31.27;;
66425;SDS011;53237;46.158;14.604;2022-10-15T00:06:04;34.05;;;30.10;;
66425;SDS011;53237;46.158;14.604;2022-10-15T00:08:30;35.75;;;31.20;;
66425;SDS011;53237;46.158;14.604;2022-10-15T00:11:00;35.33;;;30.73;;
66425;SDS011;53237;46.158;14.604;2022-10-15T00:13:26;35.33;;;31.52;;
66425;SDS011;53237;46.158;14.604;2022-10-15T00:15:52;37.97;;;31.42;;
66425;SDS011;53237;46.158;14.604;2022-10-15T00:18:18;35.55;;;31.05;;
66425;SDS011;53237;46.158;14.604;2022-10-15T00:20:44;35.53;;;31.17;;
66425;SDS011;53237;46.158;14.604;2022-10-15T00:23:10;35.25;;;30.73;;
66425;SDS011;53237;46.158;14.604;2022-10-15T00:25:36;35.72;;;31.83;;
66425;SDS011;53237;46.158;14.604;2022-10-15T00:28:03;34.55;;;30.58;;
66425;SDS011;53237;46.158;14.604;2022-10-15T00:30:29;36.08;;;31.00;;
66425;SDS011;53237;46.158;14.604;2022-10-15T00:32:55;33.55;;;29.95;;
66425;SDS011;53237;46.158;14.604;2022-10-15T00:35:21;31.58;;;28.17;;
66425;SDS011;53237;46.158;14.604;2022-10-15T00:37:47;32.47;;;28.98;;
66425;SDS011;53237;46.158;14.604;2022-10-15T00:40:13;34.55;;;30.85;;
66425;SDS011;53237;46.158;14.604;2022-10-15T00:42:39;33.22;;;28.63;;
66425;SDS011;53237;46.158;14.604;2022-10-15T00:45:07;32.40;;;28.90;;
66425;SDS011;53237;46.158;14.604;2022-10-15T00:47:39;37.95;;;29.50;;
66425;SDS011;53237;46.158;14.604;2022-10-15T00:50:07;36.63;;;30.60;;
66425;SDS011;53237;46.158;14.604;2022-10-15T00:55:23;32.72;;;29.20;;
66425;SDS011;53237;46.158;14.604;2022-10-15T00:57:50;31.70;;;28.30;;
66425;SDS011;53237;46.158;14.604;2022-10-15T01:00:17;31.30;;;27.35;;
66425;SDS011;53237;46.158;14.604;2022-10-15T01:02:44;32.45;;;28.80;;
66425;SDS011;53237;46.158;14.604;2022-10-15T01:05:10;36.33;;;29.58;;
66425;SDS011;53237;46.158;14.604;2022-10-15T01:07:36;34.85;;;30.52;;
66425;SDS011;53237;46.158;14.604;2022-10-15T01:10:03;35.45;;;30.23;;
66425;SDS011;53237;46.158;14.604;2022-10-15T01:15:22;31.73;;;28.02;;
66425;SDS011;53237;46.158;14.604;2022-10-15T01:17:50;33.67;;;29.83;;
66425;SDS011;53237;46.158;14.604;2022-10-15T01:31:02;35.28;;;30.35;;
66425;SDS011;53237;46.158;14.604;2022-10-15T01:36:17;37.20;;;30.00;;
66425;SDS011;53237;46.158;14.604;2022-10-15T01:43:56;35.40;;;30.00;;
66425;SDS011;53237;46.158;14.604;2022-10-15T01:46:25;37.70;;;31.08;;
66425;SDS011;53237;46.158;14.604;2022-10-15T01:48:51;37.40;;;31.95;;
66425;SDS011;53237;46.158;14.604;2022-10-15T01:51:19;37.03;;;31.52;;
66425;SDS011;53237;46.158;14.604;2022-10-15T01:53:48;35.03;;;30.13;;
66425;SDS011;53237;46.158;14.604;2022-10-15T01:56:16;41.65;;;31.98;;
66425;SDS011;53237;46.158;14.604;2022-10-15T01:58:42;34.97;;;31.15;;
66425;SDS011;53237;46.158;14.604;2022-10-15T02:01:09;36.03;;;30.77;;
66425;SDS011;53237;46.158;14.604;2022-10-15T02:03:43;37.85;;;33.50;;
66425;SDS011;53237;46.158;14.604;2022-10-15T02:06:09;39.50;;;34.08;;
66425;SDS011;53237;46.158;14.604;2022-10-15T02:08:39;38.40;;;31.92;;
66425;SDS011;53237;46.158;14.604;2022-10-15T02:11:08;35.83;;;31.63;;
66425;SDS011;53237;46.158;14.604;2022-10-15T02:18:49;34.33;;;30.15;;
66425;SDS011;53237;46.158;14.604;2022-10-15T02:21:20;34.97;;;30.98;;
66425;SDS011;53237;46.158;14.604;2022-10-15T02:23:51;33.92;;;30.23;;
66425;SDS011;53237;46.158;14.604;2022-10-15T02:26:17;35.33;;;29.50;;
66425;SDS011;53237;46.158;14.604;2022-10-15T02:28:45;34.28;;;29.50;;
66425;SDS011;53237;46.158;14.604;2022-10-15T02:31:14;33.08;;;29.50;;
66425;SDS011;53237;46.158;14.604;2022-10-15T02:33:41;34.00;;;30.38;;
66425;SDS011;53237;46.158;14.604;2022-10-15T02:36:08;32.78;;;29.08;;
66425;SDS011;53237;46.158;14.604;2022-10-15T02:38:34;33.90;;;30.30;;
66425;SDS011;53237;46.158;14.604;2022-10-15T02:41:01;32.72;;;29.20;;
66425;SDS011;53237;46.158;14.604;2022-10-15T02:43:27;32.85;;;29.25;;
66425;SDS011;53237;46.158;14.604;2022-10-15T02:45:53;32.92;;;29.42;;
66425;SDS011;53237;46.158;14.604;2022-10-15T02:48:19;34.38;;;28.80;;
66425;SDS011;53237;46.158;14.604;2022-10-15T02:50:45;32.60;;;29.05;;
66425;SDS011;53237;46.158;14.604;2022-10-15T02:53:11;35.08;;;30.17;;
66425;SDS011;53237;46.158;14.604;2022-10-15T02:55:37;33.67;;;30.00;;
66425;SDS011;53237;46.158;14.604;2022-10-15T02:58:03;32.42;;;28.92;;
66425;SDS011;53237;46.158;14.604;2022-10-15T03:00:29;34.00;;;29.40;;
66425;SDS011;53237;46.158;14.604;2022-10-15T03:02:55;34.95;;;29.52;;
66425;SDS011;53237;46.158;14.604;2022-10-15T03:05:21;33.67;;;29.02;;
66425;SDS011;53237;46.158;14.604;2022-10-15T03:07:47;35.08;;;30.50;;
66425;SDS011;53237;46.158;14.604;2022-10-15T03:10:13;32.20;;;28.70;;
66425;SDS011;53237;46.158;14.604;2022-10-15T03:12:39;33.92;;;30.10;;
66425;SDS011;53237;46.158;14.604;2022-10-15T03:15:05;33.20;;;29.60;;
66425;SDS011;53237;46.158;14.604;2022-10-15T03:17:32;32.05;;;28.60;;
66425;SDS011;53237;46.158;14.604;2022-10-15T03:19:57;33.55;;;29.65;;
66425;SDS011;53237;46.158;14.604;2022-10-15T03:22:23;33.17;;;28.98;;
66425;SDS011;53237;46.158;14.604;2022-10-15T03:24:49;34.42;;;29.25;;
66425;SDS011;53237;46.158;14.604;2022-10-15T03:27:15;33.78;;;29.23;;
66425;SDS011;53237;46.158;14.604;2022-10-15T03:29:41;33.05;;;29.45;;
66425;SDS011;53237;46.158;14.604;2022-10-15T03:32:07;33.58;;;30.05;;
66425;SDS011;53237;46.158;14.604;2022-10-15T03:34:33;33.42;;;29.80;;
66425;SDS011;53237;46.158;14.604;2022-10-15T03:36:59;32.55;;;29.15;;
66425;SDS011;53237;46.158;14.604;2022-10-15T03:39:25;31.58;;;28.08;;
66425;SDS011;53237;46.158;14.604;2022-10-15T03:41:52;34.30;;;29.05;;
66425;SDS011;53237;46.158;14.604;2022-10-15T03:44:18;32.33;;;28.83;;
66425;SDS011;53237;46.158;14.604;2022-10-15T03:46:44;31.27;;;27.88;;
66425;SDS011;53237;46.158;14.604;2022-10-15T03:49:10;30.52;;;27.20;;
66425;SDS011;53237;46.158;14.604;2022-10-15T03:51:36;30.83;;;27.65;;
66425;SDS011;53237;46.158;14.604;2022-10-15T03:54:02;31.10;;;27.65;;
66425;SDS011;53237;46.158;14.604;2022-10-15T03:56:28;31.77;;;26.77;;
66425;SDS011;53237;46.158;14.604;2022-10-15T03:58:54;29.83;;;26.00;;
66425;SDS011;53237;46.158;14.604;2022-10-15T04:01:20;30.73;;;27.42;;
66425;SDS011;53237;46.158;14.604;2022-10-15T04:03:46;31.60;;;28.00;;
66425;SDS011;53237;46.158;14.604;2022-10-15T04:06:12;31.48;;;28.20;;
66425;SDS011;53237;46.158;14.604;2022-10-15T04:08:38;30.48;;;27.17;;
66425;SDS011;53237;46.158;14.604;2022-10-15T04:11:04;30.85;;;27.50;;
66425;SDS011;53237;46.158;14.604;2022-10-15T04:13:30;31.30;;;27.98;;
66425;SDS011;53237;46.158;14.604;2022-10-15T04:15:56;33.00;;;27.52;;
66425;SDS011;53237;46.158;14.604;2022-10-15T04:18:22;34.63;;;30.88;;
66425;SDS011;53237;46.158;14.604;2022-10-15T04:20:48;31.42;;;28.15;;
66425;SDS011;53237;46.158;14.604;2022-10-15T04:23:14;31.33;;;27.92;;
66425;SDS011;53237;46.158;14.604;2022-10-15T04:25:40;31.08;;;27.67;;
66425;SDS011;53237;46.158;14.604;2022-10-15T04:28:06;32.03;;;28.50;;
66425;SDS011;53237;46.158;14.604;2022-10-15T04:30:33;30.75;;;27.40;;
66425;SDS011;53237;46.158;14.604;2022-10-15T04:32:59;29.75;;;26.55;;
66425;SDS011;53237;46.158;14.604;2022-10-15T04:35:25;32.10;;;27.92;;
66425;SDS011;53237;46.158;14.604;2022-10-15T04:37:51;30.40;;;27.25;;
66425;SDS011;53237;46.158;14.604;2022-10-15T04:40:17;29.83;;;26.13;;
66425;SDS011;53237;46.158;14.604;2022-10-15T04:42:43;30.17;;;26.95;;
66425;SDS011;53237;46.158;14.604;2022-10-15T04:45:09;33.33;;;29.35;;
66425;SDS011;53237;46.158;14.604;2022-10-15T04:47:35;32.00;;;28.60;;
66425;SDS011;53237;46.158;14.604;2022-10-15T04:50:01;34.65;;;29.10;;
66425;SDS011;53237;46.158;14.604;2022-10-15T04:52:28;32.67;;;29.17;;
66425;SDS011;53237;46.158;14.604;2022-10-15T04:54:53;33.03;;;29.52;;
66425;SDS011;53237;46.158;14.604;2022-10-15T04:57:19;36.55;;;30.48;;
66425;SDS011;53237;46.158;14.604;2022-10-15T04:59:45;31.75;;;28.27;;
66425;SDS011;53237;46.158;14.604;2022-10-15T05:02:12;36.65;;;30.27;;
66425;SDS011;53237;46.158;14.604;2022-10-15T05:04:38;33.50;;;29.23;;
66425;SDS011;53237;46.158;14.604;2022-10-15T05:07:04;35.28;;;30.63;;
66425;SDS011;53237;46.158;14.604;2022-10-15T05:09:30;35.35;;;30.67;;
66425;SDS011;53237;46.158;14.604;2022-10-15T05:11:56;35.25;;;30.80;;
66425;SDS011;53237;46.158;14.604;2022-10-15T05:14:22;37.50;;;31.38;;
66425;SDS011;53237;46.158;14.604;2022-10-15T05:16:48;35.28;;;30.92;;
66425;SDS011;53237;46.158;14.604;2022-10-15T05:19:14;43.78;;;32.95;;
66425;SDS011;53237;46.158;14.604;2022-10-15T05:21:41;35.95;;;31.33;;
66425;SDS011;53237;46.158;14.604;2022-10-15T05:24:07;35.05;;;30.83;;
66425;SDS011;53237;46.158;14.604;2022-10-15T05:26:34;35.90;;;29.83;;
66425;SDS011;53237;46.158;14.604;2022-10-15T05:29:00;36.63;;;31.67;;
66425;SDS011;53237;46.158;14.604;2022-10-15T05:31:27;36.80;;;29.65;;
66425;SDS011;53237;46.158;14.604;2022-10-15T05:33:54;36.47;;;30.40;;
66425;SDS011;53237;46.158;14.604;2022-10-15T05:36:24;36.33;;;29.83;;
66425;SDS011;53237;46.158;14.604;2022-10-15T05:38:55;35.47;;;29.67;;
66425;SDS011;53237;46.158;14.604;2022-10-15T05:41:21;34.67;;;30.15;;
66425;SDS011;53237;46.158;14.604;2022-10-15T05:43:48;34.05;;;29.13;;
66425;SDS011;53237;46.158;14.604;2022-10-15T05:46:15;37.20;;;30.73;;
66425;SDS011;53237;46.158;14.604;2022-10-15T05:48:41;37.67;;;31.15;;
66425;SDS011;53237;46.158;14.604;2022-10-15T05:51:09;36.47;;;30.27;;
66425;SDS011;53237;46.158;14.604;2022-10-15T05:53:36;37.72;;;31.45;;
66425;SDS011;53237;46.158;14.604;2022-10-15T05:56:03;41.47;;;31.17;;
66425;SDS011;53237;46.158;14.604;2022-10-15T05:58:31;48.85;;;34.30;;
66425;SDS011;53237;46.158;14.604;2022-10-15T06:00:58;37.05;;;31.35;;
66425;SDS011;53237;46.158;14.604;2022-10-15T06:03:24;38.38;;;30.85;;
66425;SDS011;53237;46.158;14.604;2022-10-15T06:05:51;40.20;;;32.80;;
66425;SDS011;53237;46.158;14.604;2022-10-15T06:08:17;37.95;;;31.00;;
66425;SDS011;53237;46.158;14.604;2022-10-15T06:10:44;39.20;;;31.23;;
66425;SDS011;53237;46.158;14.604;2022-10-15T06:13:10;39.38;;;29.73;;
66425;SDS011;53237;46.158;14.604;2022-10-15T06:15:39;40.40;;;31.08;;
66425;SDS011;53237;46.158;14.604;2022-10-15T06:18:06;38.42;;;31.42;;
66425;SDS011;53237;46.158;14.604;2022-10-15T06:20:32;45.47;;;31.27;;
66425;SDS011;53237;46.158;14.604;2022-10-15T06:22:59;40.75;;;31.23;;
66425;SDS011;53237;46.158;14.604;2022-10-15T06:25:25;43.67;;;33.78;;
66425;SDS011;53237;46.158;14.604;2022-10-15T06:27:51;38.20;;;31.20;;
66425;SDS011;53237;46.158;14.604;2022-10-15T06:30:18;47.42;;;33.78;;
66425;SDS011;53237;46.158;14.604;2022-10-15T06:32:48;43.00;;;33.28;;
66425;SDS011;53237;46.158;14.604;2022-10-15T06:35:14;43.85;;;34.05;;
66425;SDS011;53237;46.158;14.604;2022-10-15T06:37:40;46.88;;;35.17;;
66425;SDS011;53237;46.158;14.604;2022-10-15T06:40:06;41.83;;;33.38;;
66425;SDS011;53237;46.158;14.604;2022-10-15T06:42:32;43.58;;;33.38;;
66425;SDS011;53237;46.158;14.604;2022-10-15T06:44:58;45.10;;;33.70;;
66425;SDS011;53237;46.158;14.604;2022-10-15T06:47:24;43.35;;;33.33;;
66425;SDS011;53237;46.158;14.604;2022-10-15T06:49:50;43.80;;;34.72;;
66425;SDS011;53237;46.158;14.604;2022-10-15T06:52:16;39.92;;;32.13;;
66425;SDS011;53237;46.158;14.604;2022-10-15T06:54:42;39.15;;;31.75;;
66425;SDS011;53237;46.158;14.604;2022-10-15T06:57:08;37.47;;;30.80;;
66425;SDS011;53237;46.158;14.604;2022-10-15T06:59:34;39.00;;;32.40;;
66425;SDS011;53237;46.158;14.604;2022-10-15T07:02:00;41.05;;;33.03;;
66425;SDS011;53237;46.158;14.604;2022-10-15T07:04:26;69.75;;;38.58;;
66425;SDS011;53237;46.158;14.604;2022-10-15T07:06:52;38.55;;;31.40;;
66425;SDS011;53237;46.158;14.604;2022-10-15T07:09:18;38.22;;;31.73;;
66425;SDS011;53237;46.158;14.604;2022-10-15T07:11:44;38.40;;;31.42;;
66425;SDS011;53237;46.158;14.604;2022-10-15T07:14:10;41.80;;;33.78;;
66425;SDS011;53237;46.158;14.604;2022-10-15T07:16:36;49.05;;;37.00;;
66425;SDS011;53237;46.158;14.604;2022-10-15T07:19:05;40.70;;;32.72;;
66425;SDS011;53237;46.158;14.604;2022-10-15T07:21:31;39.35;;;32.13;;
66425;SDS011;53237;46.158;14.604;2022-10-15T07:23:57;41.45;;;32.50;;
66425;SDS011;53237;46.158;14.604;2022-10-15T07:26:24;40.03;;;32.10;;
66425;SDS011;53237;46.158;14.604;2022-10-15T07:28:53;38.58;;;32.38;;
66425;SDS011;53237;46.158;14.604;2022-10-15T07:31:19;38.67;;;32.25;;
66425;SDS011;53237;46.158;14.604;2022-10-15T07:33:45;38.17;;;31.48;;
66425;SDS011;53237;46.158;14.604;2022-10-15T07:36:11;42.45;;;33.22;;
66425;SDS011;53237;46.158;14.604;2022-10-15T07:38:37;41.97;;;34.80;;
66425;SDS011;53237;46.158;14.604;2022-10-15T07:41:07;40.60;;;34.40;;
66425;SDS011;53237;46.158;14.604;2022-10-15T07:43:34;40.53;;;32.75;;
66425;SDS011;53237;46.158;14.604;2022-10-15T07:46:01;37.83;;;31.30;;
66425;SDS011;53237;46.158;14.604;2022-10-15T07:48:27;39.97;;;32.70;;
66425;SDS011;53237;46.158;14.604;2022-10-15T07:50:56;42.90;;;35.67;;
66425;SDS011;53237;46.158;14.604;2022-10-15T07:53:23;38.38;;;32.20;;
66425;SDS011;53237;46.158;14.604;2022-10-15T07:55:48;46.17;;;36.95;;
66425;SDS011;53237;46.158;14.604;2022-10-15T07:58:15;60.08;;;46.17;;
66425;SDS011;53237;46.158;14.604;2022-10-15T08:00:41;48.08;;;37.83;;
66425;SDS011;53237;46.158;14.604;2022-10-15T08:03:07;39.20;;;33.22;;
66425;SDS011;53237;46.158;14.604;2022-10-15T08:05:33;37.83;;;32.25;;
66425;SDS011;53237;46.158;14.604;2022-10-15T08:07:59;40.25;;;33.88;;
66425;SDS011;53237;46.158;14.604;2022-10-15T08:10:25;45.40;;;38.42;;
66425;SDS011;53237;46.158;14.604;2022-10-15T08:12:51;39.38;;;33.05;;
66425;SDS011;53237;46.158;14.604;2022-10-15T08:15:17;40.38;;;32.97;;
66425;SDS011;53237;46.158;14.604;2022-10-15T08:17:43;36.90;;;30.92;;
66425;SDS011;53237;46.158;14.604;2022-10-15T08:20:10;36.53;;;31.55;;
66425;SDS011;53237;46.158;14.604;2022-10-15T08:22:36;37.65;;;31.20;;
66425;SDS011;53237;46.158;14.604;2022-10-15T08:25:02;38.15;;;32.20;;
66425;SDS011;53237;46.158;14.604;2022-10-15T08:27:28;41.00;;;34.00;;
66425;SDS011;53237;46.158;14.604;2022-10-15T08:29:54;36.03;;;30.95;;
66425;SDS011;53237;46.158;14.604;2022-10-15T08:32:20;42.72;;;36.50;;
66425;SDS011;53237;46.158;14.604;2022-10-15T08:34:46;40.20;;;33.10;;
66425;SDS011;53237;46.158;14.604;2022-10-15T08:37:12;49.25;;;40.50;;
66425;SDS011;53237;46.158;14.604;2022-10-15T08:39:38;42.20;;;35.78;;
66425;SDS011;53237;46.158;14.604;2022-10-15T08:42:05;47.13;;;39.13;;
66425;SDS011;53237;46.158;14.604;2022-10-15T08:44:40;49.78;;;41.17;;
66425;SDS011;53237;46.158;14.604;2022-10-15T08:47:13;37.70;;;32.45;;
66425;SDS011;53237;46.158;14.604;2022-10-15T08:49:44;35.25;;;31.05;;
66425;SDS011;53237;46.158;14.604;2022-10-15T08:52:16;51.00;;;42.08;;
66425;SDS011;53237;46.158;14.604;2022-10-15T08:54:43;54.97;;;44.45;;
66425;SDS011;53237;46.158;14.604;2022-10-15T08:57:16;35.85;;;31.60;;
66425;SDS011;53237;46.158;14.604;2022-10-15T08:59:48;33.92;;;30.23;;
66425;SDS011;53237;46.158;14.604;2022-10-15T09:02:20;35.80;;;31.25;;
66425;SDS011;53237;46.158;14.604;2022-10-15T09:07:34;43.38;;;35.45;;
66425;SDS011;53237;46.158;14.604;2022-10-15T09:10:09;36.72;;;31.13;;
66425;SDS011;53237;46.158;14.604;2022-10-15T09:12:41;37.72;;;32.78;;
66425;SDS011;53237;46.158;14.604;2022-10-15T09:15:14;40.42;;;34.50;;
66425;SDS011;53237;46.158;14.604;2022-10-15T09:17:42;45.97;;;38.37;;
66425;SDS011;53237;46.158;14.604;2022-10-15T09:20:19;60.17;;;47.95;;
66425;SDS011;53237;46.158;14.604;2022-10-15T09:22:48;59.55;;;46.88;;
66425;SDS011;53237;46.158;14.604;2022-10-15T09:25:17;39.63;;;33.63;;
66425;SDS011;53237;46.158;14.604;2022-10-15T09:27:44;36.25;;;30.98;;
66425;SDS011;53237;46.158;14.604;2022-10-15T09:30:25;56.88;;;44.85;;
66425;SDS011;53237;46.158;14.604;2022-10-15T09:33:04;45.88;;;37.05;;
66425;SDS011;53237;46.158;14.604;2022-10-15T09:43:09;52.53;;;42.33;;
66425;SDS011;53237;46.158;14.604;2022-10-15T09:45:35;45.03;;;38.13;;
66425;SDS011;53237;46.158;14.604;2022-10-15T09:48:04;41.97;;;35.65;;
66425;SDS011;53237;46.158;14.604;2022-10-15T09:50:38;40.30;;;34.03;;
66425;SDS011;53237;46.158;14.604;2022-10-15T09:53:20;44.35;;;35.50;;
66425;SDS011;53237;46.158;14.604;2022-10-15T09:55:51;43.38;;;36.40;;
66425;SDS011;53237;46.158;14.604;2022-10-15T09:58:25;44.05;;;36.30;;
66425;SDS011;53237;46.158;14.604;2022-10-15T10:03:20;60.28;;;47.05;;
66425;SDS011;53237;46.158;14.604;2022-10-15T10:05:46;50.38;;;39.88;;
66425;SDS011;53237;46.158;14.604;2022-10-15T10:08:23;55.78;;;44.00;;
66425;SDS011;53237;46.158;14.604;2022-10-15T10:10:57;67.20;;;51.20;;
66425;SDS011;53237;46.158;14.604;2022-10-15T10:13:25;59.70;;;47.05;;
66425;SDS011;53237;46.158;14.604;2022-10-15T10:15:52;60.70;;;48.88;;
66425;SDS011;53237;46.158;14.604;2022-10-15T10:18:23;55.83;;;44.25;;
66425;SDS011;53237;46.158;14.604;2022-10-15T10:20:54;52.20;;;42.95;;
66425;SDS011;53237;46.158;14.604;2022-10-15T10:23:23;61.88;;;49.28;;
66425;SDS011;53237;46.158;14.604;2022-10-15T10:25:50;55.20;;;43.70;;
66425;SDS011;53237;46.158;14.604;2022-10-15T10:28:18;45.55;;;38.20;;
66425;SDS011;53237;46.158;14.604;2022-10-15T10:33:14;43.00;;;36.92;;
66425;SDS011;53237;46.158;14.604;2022-10-15T10:35:48;42.28;;;36.88;;
66425;SDS011;53237;46.158;14.604;2022-10-15T10:40:51;64.55;;;49.83;;
66425;SDS011;53237;46.158;14.604;2022-10-15T10:43:23;59.38;;;47.40;;
66425;SDS011;53237;46.158;14.604;2022-10-15T10:45:57;45.22;;;37.85;;
66425;SDS011;53237;46.158;14.604;2022-10-15T10:48:25;51.85;;;42.83;;
66425;SDS011;53237;46.158;14.604;2022-10-15T10:51:24;48.97;;;39.67;;
66425;SDS011;53237;46.158;14.604;2022-10-15T10:56:09;65.18;;;49.72;;
66425;SDS011;53237;46.158;14.604;2022-10-15T10:58:37;53.83;;;42.97;;
66425;SDS011;53237;46.158;14.604;2022-10-15T11:01:03;51.65;;;44.75;;
66425;SDS011;53237;46.158;14.604;2022-10-15T11:08:38;54.60;;;46.35;;
66425;SDS011;53237;46.158;14.604;2022-10-15T11:13:49;59.30;;;47.15;;
66425;SDS011;53237;46.158;14.604;2022-10-15T11:19:24;46.33;;;37.95;;
66425;SDS011;53237;46.158;14.604;2022-10-15T11:24:28;48.00;;;39.05;;
66425;SDS011;53237;46.158;14.604;2022-10-15T11:26:58;42.03;;;36.03;;
66425;SDS011;53237;46.158;14.604;2022-10-15T11:29:35;43.33;;;35.72;;
66425;SDS011;53237;46.158;14.604;2022-10-15T11:32:11;50.25;;;40.28;;
66425;SDS011;53237;46.158;14.604;2022-10-15T11:34:59;46.13;;;38.13;;
66425;SDS011;53237;46.158;14.604;2022-10-15T11:42:57;46.05;;;37.78;;
66425;SDS011;53237;46.158;14.604;2022-10-15T11:47:52;45.03;;;36.75;;
66425;SDS011;53237;46.158;14.604;2022-10-15T11:55:20;41.85;;;35.85;;
66425;SDS011;53237;46.158;14.604;2022-10-15T11:57:48;48.33;;;41.07;;
66425;SDS011;53237;46.158;14.604;2022-10-15T12:03:18;43.63;;;37.45;;
66425;SDS011;53237;46.158;14.604;2022-10-15T12:05:51;44.35;;;37.33;;
66425;SDS011;53237;46.158;14.604;2022-10-15T12:08:18;41.20;;;35.55;;
66425;SDS011;53237;46.158;14.604;2022-10-15T12:10:50;40.33;;;35.00;;
66425;SDS011;53237;46.158;14.604;2022-10-15T12:13:26;39.88;;;35.55;;
66425;SDS011;53237;46.158;14.604;2022-10-15T12:18:24;45.83;;;39.33;;
66425;SDS011;53237;46.158;14.604;2022-10-15T12:20:52;46.35;;;41.05;;
66425;SDS011;53237;46.158;14.604;2022-10-15T12:25:48;43.10;;;37.60;;
66425;SDS011;53237;46.158;14.604;2022-10-15T12:30:41;43.33;;;38.30;;
66425;SDS011;53237;46.158;14.604;2022-10-15T12:38:55;39.10;;;34.85;;
66425;SDS011;53237;46.158;14.604;2022-10-15T12:41:21;40.70;;;36.17;;
66425;SDS011;53237;46.158;14.604;2022-10-15T12:44:33;43.35;;;37.65;;
66425;SDS011;53237;46.158;14.604;2022-10-15T12:46:51;43.20;;;38.20;;
66425;SDS011;53237;46.158;14.604;2022-10-15T12:51:59;44.70;;;37.53;;
66425;SDS011;53237;46.158;14.604;2022-10-15T12:56:58;49.38;;;43.50;;
66425;SDS011;53237;46.158;14.604;2022-10-15T12:59:52;52.08;;;45.30;;
66425;SDS011;53237;46.158;14.604;2022-10-15T13:02:29;48.15;;;42.55;;
66425;SDS011;53237;46.158;14.604;2022-10-15T13:04:57;41.15;;;35.30;;
66425;SDS011;53237;46.158;14.604;2022-10-15T13:07:23;40.53;;;34.58;;
66425;SDS011;53237;46.158;14.604;2022-10-15T13:09:49;51.03;;;39.15;;
66425;SDS011;53237;46.158;14.604;2022-10-15T13:12:22;40.03;;;35.63;;
66425;SDS011;53237;46.158;14.604;2022-10-15T13:14:54;49.05;;;43.58;;
66425;SDS011;53237;46.158;14.604;2022-10-15T13:17:21;44.58;;;38.08;;
66425;SDS011;53237;46.158;14.604;2022-10-15T13:24:45;45.22;;;38.53;;
66425;SDS011;53237;46.158;14.604;2022-10-15T13:27:19;44.17;;;39.05;;
66425;SDS011;53237;46.158;14.604;2022-10-15T13:29:52;43.05;;;36.58;;
66425;SDS011;53237;46.158;14.604;2022-10-15T13:32:19;45.45;;;36.33;;
66425;SDS011;53237;46.158;14.604;2022-10-15T13:34:46;42.67;;;36.55;;
66425;SDS011;53237;46.158;14.604;2022-10-15T13:37:15;36.90;;;32.90;;
66425;SDS011;53237;46.158;14.604;2022-10-15T13:39:42;37.78;;;32.25;;
66425;SDS011;53237;46.158;14.604;2022-10-15T13:42:19;42.65;;;36.47;;
66425;SDS011;53237;46.158;14.604;2022-10-15T13:47:41;43.88;;;38.67;;
66425;SDS011;53237;46.158;14.604;2022-10-15T13:50:10;47.40;;;39.15;;
66425;SDS011;53237;46.158;14.604;2022-10-15T13:52:38;46.38;;;35.63;;
66425;SDS011;53237;46.158;14.604;2022-10-15T13:55:09;38.05;;;33.20;;
66425;SDS011;53237;46.158;14.604;2022-10-15T13:57:36;37.78;;;33.83;;
66425;SDS011;53237;46.158;14.604;2022-10-15T14:00:02;41.05;;;34.95;;
66425;SDS011;53237;46.158;14.604;2022-10-15T14:02:29;41.97;;;36.70;;
66425;SDS011;53237;46.158;14.604;2022-10-15T14:05:13;41.35;;;36.78;;
66425;SDS011;53237;46.158;14.604;2022-10-15T14:07:39;43.72;;;34.92;;
66425;SDS011;53237;46.158;14.604;2022-10-15T14:10:05;45.30;;;39.63;;
66425;SDS011;53237;46.158;14.604;2022-10-15T14:12:31;36.83;;;32.70;;
66425;SDS011;53237;46.158;14.604;2022-10-15T14:14:57;40.17;;;34.92;;
66425;SDS011;53237;46.158;14.604;2022-10-15T14:17:43;40.92;;;33.67;;
66425;SDS011;53237;46.158;14.604;2022-10-15T14:20:14;48.23;;;38.67;;
66425;SDS011;53237;46.158;14.604;2022-10-15T14:22:42;45.22;;;37.25;;
66425;SDS011;53237;46.158;14.604;2022-10-15T14:25:13;42.00;;;36.50;;
66425;SDS011;53237;46.158;14.604;2022-10-15T14:27:45;40.08;;;34.15;;
66425;SDS011;53237;46.158;14.604;2022-10-15T14:30:18;39.47;;;34.33;;
66425;SDS011;53237;46.158;14.604;2022-10-15T14:32:48;38.38;;;33.65;;
66425;SDS011;53237;46.158;14.604;2022-10-15T14:38:03;38.55;;;33.75;;
66425;SDS011;53237;46.158;14.604;2022-10-15T14:40:29;39.33;;;35.13;;
66425;SDS011;53237;46.158;14.604;2022-10-15T14:43:06;40.25;;;34.92;;
66425;SDS011;53237;46.158;14.604;2022-10-15T14:48:18;38.80;;;32.40;;
66425;SDS011;53237;46.158;14.604;2022-10-15T14:50:44;35.08;;;31.30;;
66425;SDS011;53237;46.158;14.604;2022-10-15T14:53:18;35.10;;;30.73;;
66425;SDS011;53237;46.158;14.604;2022-10-15T14:56:28;36.75;;;30.02;;
66425;SDS011;53237;46.158;14.604;2022-10-15T14:58:34;37.03;;;33.00;;
66425;SDS011;53237;46.158;14.604;2022-10-15T15:01:01;33.97;;;29.88;;
66425;SDS011;53237;46.158;14.604;2022-10-15T15:03:29;40.65;;;33.30;;
66425;SDS011;53237;46.158;14.604;2022-10-15T15:05:55;46.90;;;33.30;;
66425;SDS011;53237;46.158;14.604;2022-10-15T15:08:22;38.55;;;34.30;;
66425;SDS011;53237;46.158;14.604;2022-10-15T15:10:49;38.58;;;33.85;;
66425;SDS011;53237;46.158;14.604;2022-10-15T15:13:22;34.45;;;29.67;;
66425;SDS011;53237;46.158;14.604;2022-10-15T15:15:48;38.67;;;31.45;;
66425;SDS011;53237;46.158;14.604;2022-10-15T15:18:15;36.45;;;30.25;;
66425;SDS011;53237;46.158;14.604;2022-10-15T15:20:41;38.33;;;33.30;;
66425;SDS011;53237;46.158;14.604;2022-10-15T15:23:13;34.97;;;29.35;;
66425;SDS011;53237;46.158;14.604;2022-10-15T15:25:39;41.20;;;35.53;;
66425;SDS011;53237;46.158;14.604;2022-10-15T15:28:08;39.83;;;34.33;;
66425;SDS011;53237;46.158;14.604;2022-10-15T15:30:36;39.72;;;34.38;;
66425;SDS011;53237;46.158;14.604;2022-10-15T15:33:04;36.10;;;31.80;;
66425;SDS011;53237;46.158;14.604;2022-10-15T15:35:32;43.00;;;35.15;;
66425;SDS011;53237;46.158;14.604;2022-10-15T15:38:00;40.67;;;33.08;;
66425;SDS011;53237;46.158;14.604;2022-10-15T15:40:26;39.97;;;34.33;;
66425;SDS011;53237;46.158;14.604;2022-10-15T15:42:52;37.05;;;33.03;;
66425;SDS011;53237;46.158;14.604;2022-10-15T15:45:21;33.75;;;29.80;;
66425;SDS011;53237;46.158;14.604;2022-10-15T15:47:48;31.00;;;27.75;;
66425;SDS011;53237;46.158;14.604;2022-10-15T15:50:14;39.53;;;33.95;;
66425;SDS011;53237;46.158;14.604;2022-10-15T15:52:41;37.20;;;32.85;;
66425;SDS011;53237;46.158;14.604;2022-10-15T15:55:08;38.25;;;34.15;;
66425;SDS011;53237;46.158;14.604;2022-10-15T15:57:34;43.63;;;38.50;;
66425;SDS011;53237;46.158;14.604;2022-10-15T16:00:00;41.20;;;34.67;;
66425;SDS011;53237;46.158;14.604;2022-10-15T16:02:26;43.15;;;38.20;;
66425;SDS011;53237;46.158;14.604;2022-10-15T16:04:52;59.95;;;48.88;;
66425;SDS011;53237;46.158;14.604;2022-10-15T16:07:18;50.92;;;41.55;;